createdAt,value
2023-02-22T00:01:35.300Z,13.55
2023-02-22T00:04:03.700Z,13.52
2023-02-22T00:06:31.060Z,13.51
2023-02-22T00:08:58.336Z,13.56
2023-02-22T00:11:25.401Z,13.48
2023-02-22T00:13:52.240Z,13.40
2023-02-22T00:16:21.176Z,13.41
2023-02-22T00:18:48.433Z,13.47
2023-02-22T00:21:16.536Z,13.56
2023-02-22T00:23:49.100Z,13.58
2023-02-22T00:26:20.932Z,13.59
2023-02-22T00:28:49.014Z,13.39
2023-02-22T00:31:16.008Z,13.49
2023-02-22T00:33:43.148Z,13.53
2023-02-22T00:36:11.386Z,13.57
2023-02-22T00:38:37.890Z,13.53
2023-02-22T00:41:04.876Z,13.48
2023-02-22T00:43:31.273Z,13.46
2023-02-22T00:45:57.924Z,13.39
2023-02-22T00:48:24.445Z,13.32
2023-02-22T00:50:55.224Z,13.33
2023-02-22T00:53:23.597Z,13.37
2023-02-22T00:55:50.535Z,13.22
2023-02-22T00:58:17.079Z,13.07
2023-02-22T01:00:43.841Z,13.00
2023-02-22T01:03:13.352Z,13.09
2023-02-22T01:05:39.943Z,12.92
2023-02-22T01:08:08.375Z,13.07
2023-02-22T01:10:35.480Z,13.10
2023-02-22T01:13:04.846Z,13.02
2023-02-22T01:15:31.255Z,13.15
2023-02-22T01:17:58.525Z,13.03
2023-02-22T01:20:26.175Z,12.91
2023-02-22T01:22:54.436Z,12.92
2023-02-22T01:25:24.372Z,13.07
2023-02-22T01:27:51.490Z,13.06
2023-02-22T01:30:24.737Z,13.08
2023-02-22T01:32:51.619Z,13.07
2023-02-22T01:35:21.504Z,12.99
2023-02-22T01:37:47.887Z,12.99
2023-02-22T01:40:20.462Z,13.01
2023-02-22T01:42:57.651Z,13.08
2023-02-22T01:45:30.212Z,12.86
2023-02-22T01:47:58.788Z,12.88
2023-02-22T01:50:25.197Z,12.89
2023-02-22T01:52:51.688Z,12.84
2023-02-22T01:55:18.352Z,12.66
2023-02-22T01:57:44.842Z,12.63
2023-02-22T02:00:16.893Z,12.52
2023-02-22T02:02:46.592Z,12.59
2023-02-22T02:05:13.616Z,12.51
2023-02-22T02:07:40.813Z,12.56
2023-02-22T02:10:14.484Z,12.58
2023-02-22T02:12:46.619Z,12.57
2023-02-22T02:15:16.772Z,12.53
2023-02-22T02:17:43.583Z,12.58
2023-02-22T02:20:24.962Z,12.63
2023-02-22T02:23:29.004Z,12.61
2023-02-22T02:26:27.506Z,12.57
2023-02-22T02:29:30.958Z,12.59
2023-02-22T02:32:40.507Z,12.64
2023-02-22T02:35:07.053Z,12.50
2023-02-22T02:37:44.567Z,12.44
2023-02-22T02:40:58.566Z,12.51
2023-02-22T02:43:36.961Z,12.52
2023-02-22T02:46:11.623Z,12.52
2023-02-22T02:48:42.265Z,12.56
2023-02-22T02:51:09.595Z,12.67
2023-02-22T02:53:39.066Z,12.54
2023-02-22T02:56:06.085Z,12.51
2023-02-22T02:58:32.650Z,12.49
2023-02-22T03:01:01.424Z,12.47
2023-02-22T03:03:49.953Z,12.39
2023-02-22T03:06:35.815Z,12.41
2023-02-22T03:09:24.051Z,12.39
2023-02-22T03:12:09.221Z,12.44
2023-02-22T03:14:42.789Z,12.46
2023-02-22T03:17:23.684Z,12.53
2023-02-22T03:19:53.658Z,12.58
2023-02-22T03:22:27.225Z,12.62
2023-02-22T03:25:02.175Z,12.53
2023-02-22T03:27:44.632Z,12.55
2023-02-22T03:30:24.106Z,12.53
2023-02-22T03:32:53.243Z,12.46
2023-02-22T03:35:23.394Z,12.42
2023-02-22T03:37:54.489Z,12.42
2023-02-22T03:40:36.073Z,12.36
2023-02-22T03:43:07.691Z,12.40
2023-02-22T03:45:34.624Z,12.42
2023-02-22T03:48:06.515Z,12.43
2023-02-22T03:50:36.070Z,12.35
2023-02-22T03:53:02.902Z,12.44
2023-02-22T03:55:31.366Z,12.33
2023-02-22T03:57:59.328Z,12.35
2023-02-22T04:00:28.220Z,12.32
2023-02-22T04:02:54.906Z,12.23
2023-02-22T04:05:21.971Z,12.14
2023-02-22T04:07:48.374Z,12.10
2023-02-22T04:10:16.294Z,11.99
2023-02-22T04:12:42.667Z,11.82
2023-02-22T04:15:11.585Z,11.65
2023-02-22T04:17:38.011Z,11.51
2023-02-22T04:20:06.183Z,11.42
2023-02-22T04:22:32.732Z,11.31
2023-02-22T04:24:59.145Z,11.27
2023-02-22T04:27:25.783Z,11.14
2023-02-22T04:29:52.265Z,11.15
2023-02-22T04:32:18.662Z,11.04
2023-02-22T04:34:45.131Z,10.99
2023-02-22T04:37:12.281Z,10.83
2023-02-22T04:39:38.799Z,10.76
2023-02-22T04:42:05.459Z,10.77
2023-02-22T04:44:32.160Z,10.79
2023-02-22T04:46:58.629Z,10.69
2023-02-22T04:49:25.041Z,10.60
2023-02-22T04:51:51.419Z,10.43
2023-02-22T04:54:18.387Z,10.32
2023-02-22T04:56:45.314Z,10.32
2023-02-22T04:59:11.771Z,10.18
2023-02-22T05:01:38.674Z,10.08
2023-02-22T05:04:06.395Z,10.05
2023-02-22T05:06:33.030Z,10.19
2023-02-22T05:08:59.502Z,10.08
2023-02-22T05:11:25.937Z,10.05
2023-02-22T05:13:53.329Z,10.04
2023-02-22T05:16:19.781Z,9.94
2023-02-22T05:18:46.217Z,9.90
2023-02-22T05:21:13.572Z,10.05
2023-02-22T05:23:40.143Z,10.12
2023-02-22T05:26:06.601Z,10.34
2023-02-22T05:28:33.250Z,10.45
2023-02-22T05:30:59.692Z,10.49
2023-02-22T05:33:26.137Z,10.57
2023-02-22T05:35:52.614Z,10.64
2023-02-22T05:38:19.000Z,10.58
2023-02-22T05:40:45.460Z,10.64
2023-02-22T05:43:11.928Z,10.70
2023-02-22T05:45:38.327Z,10.71
2023-02-22T05:48:04.955Z,10.61
2023-02-22T05:50:33.229Z,10.68
2023-02-22T05:52:59.940Z,10.49
2023-02-22T05:55:26.510Z,10.43
2023-02-22T05:57:53.174Z,10.61
2023-02-22T06:00:25.673Z,10.35
2023-02-22T06:02:59.547Z,10.18
2023-02-22T06:05:26.545Z,10.18
2023-02-22T06:07:53.797Z,10.02
2023-02-22T06:10:20.379Z,9.99
2023-02-22T06:12:48.014Z,10.20
2023-02-22T06:15:18.824Z,10.15
2023-02-22T06:17:45.445Z,10.05
2023-02-22T06:20:14.143Z,9.89
2023-02-22T06:22:44.690Z,10.00
2023-02-22T06:25:14.505Z,10.20
2023-02-22T06:27:40.969Z,10.14
2023-02-22T06:30:08.204Z,10.25
2023-02-22T06:32:34.608Z,10.37
2023-02-22T06:35:01.009Z,10.39
2023-02-22T06:37:27.384Z,10.35
2023-02-22T06:39:53.782Z,10.44
2023-02-22T06:42:20.374Z,10.60
2023-02-22T06:44:46.948Z,10.69
2023-02-22T06:47:13.602Z,10.92
2023-02-22T06:49:40.030Z,10.97
2023-02-22T06:52:07.404Z,10.91
2023-02-22T06:54:33.880Z,11.08
2023-02-22T06:57:00.325Z,11.22
2023-02-22T06:59:27.992Z,11.34
2023-02-22T07:01:54.559Z,11.36
2023-02-22T07:04:21.566Z,11.43
2023-02-22T07:06:52.117Z,11.46
2023-02-22T07:09:18.911Z,11.55
2023-02-22T07:11:45.408Z,11.65
2023-02-22T07:14:11.786Z,11.80
2023-02-22T07:16:38.290Z,11.94
2023-02-22T07:19:04.682Z,11.88
2023-02-22T07:21:31.099Z,12.08
2023-02-22T07:23:59.002Z,12.11
2023-02-22T07:26:26.211Z,12.10
2023-02-22T07:28:52.654Z,12.13
2023-02-22T07:31:19.188Z,12.18
2023-02-22T07:33:49.321Z,12.26
2023-02-22T07:36:17.935Z,12.23
2023-02-22T07:38:45.574Z,12.43
2023-02-22T07:41:12.790Z,12.44
2023-02-22T07:43:39.293Z,12.35
2023-02-22T07:46:05.837Z,12.31
2023-02-22T07:48:32.466Z,12.27
2023-02-22T07:50:59.278Z,12.41
2023-02-22T07:53:30.184Z,12.46
2023-02-22T07:56:01.344Z,12.30
2023-02-22T07:58:29.694Z,12.34
2023-02-22T08:00:56.260Z,12.50
2023-02-22T08:03:25.189Z,12.62
2023-02-22T08:05:54.185Z,12.71
2023-02-22T08:08:20.831Z,12.72
2023-02-22T08:10:47.846Z,12.76
2023-02-22T08:13:14.585Z,12.80
2023-02-22T08:15:43.988Z,12.81
2023-02-22T08:18:12.594Z,12.85
2023-02-22T08:20:41.429Z,12.88
2023-02-22T08:23:09.168Z,12.90
2023-02-22T08:25:36.202Z,13.02
2023-02-22T08:28:09.288Z,12.93
2023-02-22T08:30:38.985Z,12.87
2023-02-22T08:33:06.761Z,12.77
2023-02-22T08:35:33.784Z,12.91
2023-02-22T08:38:03.040Z,12.75
2023-02-22T08:40:31.678Z,12.62
2023-02-22T08:42:58.488Z,12.79
2023-02-22T08:45:25.311Z,12.65
2023-02-22T08:47:52.006Z,12.75
2023-02-22T08:50:24.349Z,12.76
2023-02-22T08:52:52.225Z,12.68
2023-02-22T08:55:22.918Z,12.66
2023-02-22T08:57:50.579Z,12.71
2023-02-22T09:00:18.672Z,12.78
2023-02-22T09:02:45.206Z,13.23
2023-02-22T09:05:11.935Z,13.33
2023-02-22T09:07:41.933Z,13.55
2023-02-22T09:10:11.513Z,13.79
2023-02-22T09:12:37.929Z,13.78
2023-02-22T09:15:04.502Z,13.93
2023-02-22T09:17:31.275Z,13.83
2023-02-22T09:19:57.863Z,13.89
2023-02-22T09:22:24.283Z,13.78
2023-02-22T09:24:52.365Z,13.90
2023-02-22T09:27:20.126Z,13.83
2023-02-22T09:29:48.752Z,13.82
2023-02-22T09:32:18.101Z,13.73
2023-02-22T09:34:45.841Z,13.99
2023-02-22T09:37:13.502Z,14.06
2023-02-22T09:39:39.973Z,14.19
2023-02-22T09:42:12.543Z,14.22
2023-02-22T09:44:57.616Z,14.60
2023-02-22T09:47:33.605Z,14.83
2023-02-22T09:50:16.307Z,14.79
2023-02-22T09:52:59.494Z,14.92
2023-02-22T09:55:35.185Z,14.99
2023-02-22T09:58:06.640Z,14.95
2023-02-22T10:00:36.604Z,14.76
2023-02-22T10:03:22.911Z,14.91
2023-02-22T10:05:57.148Z,14.91
2023-02-22T10:08:31.167Z,14.90
2023-02-22T10:11:21.904Z,14.90
2023-02-22T10:13:58.343Z,15.06
2023-02-22T10:16:34.796Z,15.09
2023-02-22T10:19:13.547Z,15.21
2023-02-22T10:22:14.583Z,15.33
2023-02-22T10:24:47.204Z,15.23
2023-02-22T10:27:22.243Z,15.05
2023-02-22T10:29:52.577Z,14.54
2023-02-22T10:32:26.707Z,14.65
2023-02-22T10:34:54.629Z,14.89
2023-02-22T10:37:29.881Z,15.16
2023-02-22T10:40:22.951Z,15.33
2023-02-22T10:42:50.115Z,15.48
2023-02-22T10:45:30.062Z,15.55
2023-02-22T10:47:59.089Z,15.62
2023-02-22T10:50:30.790Z,15.53
2023-02-22T10:52:57.832Z,15.56
2023-02-22T10:55:25.920Z,15.76
2023-02-22T10:58:00.871Z,15.48
2023-02-22T11:00:39.773Z,15.69
2023-02-22T11:03:18.635Z,16.08
2023-02-22T11:05:45.579Z,15.79
2023-02-22T11:08:21.184Z,15.94
2023-02-22T11:10:48.888Z,15.96
2023-02-22T11:13:26.207Z,16.03
2023-02-22T11:15:59.765Z,15.73
2023-02-22T11:18:36.033Z,16.06
2023-02-22T11:21:05.816Z,16.41
2023-02-22T11:23:32.993Z,16.54
2023-02-22T11:26:07.367Z,16.52
2023-02-22T11:28:34.247Z,16.30
2023-02-22T11:31:17.416Z,16.52
2023-02-22T11:34:27.402Z,16.45
2023-02-22T11:36:54.045Z,16.69
2023-02-22T11:39:22.086Z,17.15
2023-02-22T11:41:50.061Z,17.34
2023-02-22T11:44:29.771Z,17.53
2023-02-22T11:47:01.325Z,17.46
2023-02-22T11:49:38.274Z,17.31
2023-02-22T11:52:19.340Z,17.33
2023-02-22T11:55:32.678Z,17.58
2023-02-22T11:58:27.542Z,17.72
2023-02-22T12:01:12.060Z,17.62
2023-02-22T12:04:15.720Z,17.61
2023-02-22T12:07:06.414Z,17.69
2023-02-22T12:09:51.510Z,17.79
2023-02-22T12:12:27.919Z,17.86
2023-02-22T12:15:00.870Z,17.84
2023-02-22T12:17:59.748Z,17.78
2023-02-22T12:20:47.619Z,17.99
2023-02-22T12:23:44.721Z,17.66
2023-02-22T12:26:19.975Z,17.64
2023-02-22T12:28:59.528Z,17.54
2023-02-22T12:31:51.036Z,17.60
2023-02-22T12:34:41.500Z,17.37
2023-02-22T12:37:47.872Z,17.92
2023-02-22T12:40:35.812Z,17.97
2023-02-22T12:43:23.343Z,18.06
2023-02-22T12:46:13.423Z,17.66
2023-02-22T12:48:49.452Z,17.92
2023-02-22T12:51:38.558Z,18.02
2023-02-22T12:54:16.121Z,18.20
2023-02-22T12:56:55.097Z,18.27
2023-02-22T12:59:30.563Z,18.26
2023-02-22T13:02:01.574Z,18.11
2023-02-22T13:04:31.748Z,18.11
2023-02-22T13:07:35.685Z,18.05
2023-02-22T13:10:20.548Z,18.05
2023-02-22T13:13:04.980Z,18.10
2023-02-22T13:16:10.290Z,18.28
2023-02-22T13:18:49.962Z,18.12
2023-02-22T13:21:19.074Z,18.43
2023-02-22T13:23:51.683Z,18.28
2023-02-22T13:26:34.808Z,18.28
2023-02-22T13:29:14.291Z,18.39
2023-02-22T13:31:53.111Z,18.24
2023-02-22T13:34:57.917Z,18.19
2023-02-22T13:37:41.651Z,18.16
2023-02-22T13:40:36.580Z,18.22
2023-02-22T13:43:18.988Z,18.44
2023-02-22T13:46:23.587Z,18.63
2023-02-22T13:48:56.033Z,18.43
2023-02-22T13:51:38.943Z,18.34
2023-02-22T13:54:34.308Z,18.04
2023-02-22T13:57:03.005Z,18.13
2023-02-22T13:59:37.177Z,17.93
2023-02-22T14:02:05.529Z,17.96
2023-02-22T14:04:37.130Z,17.91
2023-02-22T14:07:18.807Z,17.82
2023-02-22T14:09:50.860Z,17.97
2023-02-22T14:12:29.464Z,17.65
2023-02-22T14:15:27.712Z,17.48
2023-02-22T14:18:05.625Z,17.74
2023-02-22T14:20:35.885Z,17.97
2023-02-22T14:23:24.066Z,18.00
2023-02-22T14:25:50.969Z,18.15
2023-02-22T14:28:53.004Z,18.15
2023-02-22T14:31:34.790Z,17.89
2023-02-22T14:34:05.723Z,17.98
2023-02-22T14:36:34.256Z,17.98
2023-02-22T14:39:07.117Z,17.82
2023-02-22T14:41:34.343Z,17.84
2023-02-22T14:44:02.571Z,17.86
2023-02-22T14:46:31.833Z,17.93
2023-02-22T14:49:01.109Z,17.77
2023-02-22T14:51:30.948Z,17.98
2023-02-22T14:54:13.241Z,17.70
2023-02-22T14:56:44.273Z,17.59
2023-02-22T14:59:17.915Z,17.32
2023-02-22T15:02:01.545Z,17.30
2023-02-22T15:04:31.007Z,17.22
2023-02-22T15:06:59.121Z,17.30
2023-02-22T15:09:30.612Z,17.19
2023-02-22T15:12:04.294Z,16.99
2023-02-22T15:14:38.926Z,17.07
2023-02-22T15:17:16.701Z,16.92
2023-02-22T15:19:43.199Z,16.67
2023-02-22T15:22:22.202Z,16.31
2023-02-22T15:24:59.278Z,16.50
2023-02-22T15:27:26.377Z,16.56
2023-02-22T15:29:58.556Z,16.62
2023-02-22T15:32:49.886Z,16.54
2023-02-22T15:35:26.918Z,16.54
2023-02-22T15:38:06.211Z,16.28
2023-02-22T15:40:33.510Z,16.37
2023-02-22T15:43:08.491Z,16.25
2023-02-22T15:45:35.498Z,16.17
2023-02-22T15:48:02.050Z,15.93
2023-02-22T15:50:33.873Z,16.30
2023-02-22T15:53:26.468Z,16.18
2023-02-22T15:55:58.856Z,15.80
2023-02-22T15:58:29.110Z,15.84
2023-02-22T16:01:15.689Z,15.87
2023-02-22T16:03:47.159Z,15.70
2023-02-22T16:06:35.973Z,15.74
2023-02-22T16:09:25.693Z,15.35
2023-02-22T16:12:09.581Z,15.43
2023-02-22T16:14:35.916Z,15.54
2023-02-22T16:17:35.655Z,15.44
2023-02-22T16:20:22.163Z,15.63
2023-02-22T16:22:50.396Z,15.61
2023-02-22T16:25:21.497Z,15.44
2023-02-22T16:28:06.124Z,15.47
2023-02-22T16:30:39.681Z,15.27
2023-02-22T16:33:16.506Z,15.37
2023-02-22T16:35:52.024Z,15.27
2023-02-22T16:38:19.059Z,14.99
2023-02-22T16:40:50.513Z,15.09
2023-02-22T16:43:22.892Z,15.10
2023-02-22T16:45:49.490Z,15.08
2023-02-22T16:48:19.441Z,15.07
2023-02-22T16:50:46.192Z,14.90
2023-02-22T16:53:12.920Z,14.85
2023-02-22T16:55:44.675Z,14.71
2023-02-22T16:58:13.133Z,14.78
2023-02-22T17:00:42.192Z,14.59
2023-02-22T17:03:15.116Z,14.19
2023-02-22T17:05:41.832Z,14.07
2023-02-22T17:08:08.246Z,14.04
2023-02-22T17:10:34.799Z,13.98
2023-02-22T17:13:12.722Z,13.87
2023-02-22T17:15:46.723Z,13.83
2023-02-22T17:18:16.165Z,13.82
2023-02-22T17:20:45.718Z,13.60
2023-02-22T17:23:12.690Z,13.65
2023-02-22T17:25:40.681Z,13.56
2023-02-22T17:28:08.353Z,13.48
2023-02-22T17:30:36.015Z,13.38
2023-02-22T17:33:04.751Z,13.36
2023-02-22T17:35:36.311Z,13.30
2023-02-22T17:38:06.686Z,13.24
2023-02-22T17:40:34.801Z,13.34
2023-02-22T17:43:02.904Z,13.42
2023-02-22T17:45:29.834Z,13.42
2023-02-22T17:47:59.254Z,13.51
2023-02-22T17:50:26.573Z,13.53
2023-02-22T17:52:53.199Z,13.64
2023-02-22T17:55:20.736Z,13.59
2023-02-22T17:57:48.780Z,13.32
2023-02-22T18:00:23.394Z,13.21
2023-02-22T18:02:51.202Z,13.24
2023-02-22T18:05:18.353Z,13.24
2023-02-22T18:07:45.669Z,13.00
2023-02-22T18:10:12.712Z,13.03
2023-02-22T18:12:39.919Z,12.92
2023-02-22T18:15:08.700Z,12.92
2023-02-22T18:17:36.963Z,13.12
2023-02-22T18:20:11.772Z,13.36
2023-02-22T18:22:42.052Z,13.23
2023-02-22T18:25:16.380Z,13.24
2023-02-22T18:27:45.803Z,13.13
2023-02-22T18:30:12.810Z,13.11
2023-02-22T18:32:39.742Z,13.26
2023-02-22T18:35:06.762Z,13.33
2023-02-22T18:37:34.190Z,13.22
2023-02-22T18:40:00.762Z,13.15
2023-02-22T18:42:28.347Z,12.97
2023-02-22T18:45:00.553Z,12.88
2023-02-22T18:47:27.547Z,12.80
2023-02-22T18:49:54.497Z,12.60
2023-02-22T18:52:21.385Z,12.70
2023-02-22T18:54:49.038Z,12.68
2023-02-22T18:57:16.019Z,12.67
2023-02-22T18:59:43.254Z,12.63
2023-02-22T19:02:14.372Z,12.53
2023-02-22T19:04:41.115Z,12.70
2023-02-22T19:07:07.527Z,12.69
2023-02-22T19:09:36.292Z,12.65
2023-02-22T19:12:03.125Z,12.76
2023-02-22T19:14:29.560Z,12.62
2023-02-22T19:16:59.228Z,12.52
2023-02-22T19:19:26.726Z,12.55
2023-02-22T19:21:56.256Z,12.57
2023-02-22T19:24:22.971Z,12.58
2023-02-22T19:26:53.919Z,12.56
2023-02-22T19:29:23.566Z,12.62
2023-02-22T19:31:51.967Z,12.71
2023-02-22T19:34:21.948Z,12.89
2023-02-22T19:36:48.615Z,13.07
2023-02-22T19:39:19.829Z,13.02
2023-02-22T19:41:46.956Z,12.94
2023-02-22T19:44:13.504Z,12.85
2023-02-22T19:46:40.555Z,12.93
2023-02-22T19:49:07.582Z,12.89
2023-02-22T19:51:34.378Z,12.79
2023-02-22T19:54:03.206Z,12.82
2023-02-22T19:56:31.094Z,12.64
2023-02-22T19:59:06.506Z,12.71
2023-02-22T20:01:33.431Z,12.71
2023-02-22T20:04:05.313Z,12.66
2023-02-22T20:06:34.907Z,12.55
2023-02-22T20:09:02.626Z,12.50
2023-02-22T20:11:29.109Z,12.32
2023-02-22T20:13:55.651Z,12.26
2023-02-22T20:16:22.742Z,12.20
2023-02-22T20:18:50.144Z,12.00
2023-02-22T20:21:24.789Z,11.98
2023-02-22T20:23:51.490Z,11.94
2023-02-22T20:26:20.788Z,11.88
2023-02-22T20:28:47.301Z,11.93
2023-02-22T20:31:14.466Z,11.91
2023-02-22T20:33:48.580Z,11.88
2023-02-22T20:36:17.042Z,11.91
2023-02-22T20:38:43.748Z,11.80
2023-02-22T20:41:14.913Z,11.67
2023-02-22T20:43:41.411Z,11.87
2023-02-22T20:46:08.247Z,11.76
2023-02-22T20:48:34.914Z,11.71
2023-02-22T20:51:12.774Z,11.76
2023-02-22T20:53:41.705Z,11.68
2023-02-22T20:56:16.152Z,11.42
2023-02-22T20:58:43.086Z,11.56
2023-02-22T21:01:13.981Z,11.70
2023-02-22T21:03:42.125Z,11.63
2023-02-22T21:06:11.754Z,11.62
2023-02-22T21:08:38.220Z,11.52
2023-02-22T21:11:10.771Z,11.41
2023-02-22T21:13:37.205Z,11.32
2023-02-22T21:16:03.845Z,11.29
2023-02-22T21:18:30.257Z,11.43
2023-02-22T21:20:56.936Z,11.37
2023-02-22T21:23:23.424Z,11.40
2023-02-22T21:25:51.727Z,10.99
2023-02-22T21:28:18.324Z,11.12
2023-02-22T21:30:45.869Z,11.17
2023-02-22T21:33:12.390Z,11.07
2023-02-22T21:35:43.069Z,11.10
2023-02-22T21:38:14.304Z,11.21
2023-02-22T21:40:41.854Z,11.24
2023-02-22T21:43:11.099Z,11.13
2023-02-22T21:45:38.367Z,10.91
2023-02-22T21:48:05.500Z,10.99
2023-02-22T21:50:32.595Z,11.07
2023-02-22T21:52:59.171Z,11.00
2023-02-22T21:55:25.736Z,10.84
2023-02-22T21:57:52.456Z,10.89
2023-02-22T22:00:29.130Z,10.89
2023-02-22T22:03:08.359Z,10.86
2023-02-22T22:05:38.683Z,10.73
2023-02-22T22:08:07.472Z,10.58
2023-02-22T22:10:34.429Z,10.62
2023-02-22T22:13:00.944Z,10.81
2023-02-22T22:15:30.242Z,10.85
2023-02-22T22:18:02.658Z,10.75
2023-02-22T22:20:29.110Z,10.71
2023-02-22T22:22:55.540Z,10.45
2023-02-22T22:25:24.317Z,10.44
2023-02-22T22:27:51.238Z,10.53
2023-02-22T22:30:17.966Z,10.53
2023-02-22T22:32:45.324Z,10.51
2023-02-22T22:35:14.552Z,10.47
2023-02-22T22:37:42.315Z,10.32
2023-02-22T22:40:15.645Z,10.53
2023-02-22T22:42:42.658Z,10.40
2023-02-22T22:45:13.790Z,10.53
2023-02-22T22:47:46.698Z,10.51
2023-02-22T22:50:15.273Z,10.55
2023-02-22T22:52:42.166Z,10.51
2023-02-22T22:55:11.981Z,10.71
2023-02-22T22:57:39.709Z,10.62
2023-02-22T23:00:44.988Z,10.55
2023-02-22T23:03:16.456Z,10.43
2023-02-22T23:05:43.325Z,10.33
2023-02-22T23:08:10.929Z,10.16
2023-02-22T23:10:39.281Z,10.33
2023-02-22T23:13:10.082Z,10.27
2023-02-22T23:15:42.598Z,10.23
2023-02-22T23:18:09.493Z,10.38
2023-02-22T23:20:38.924Z,10.33
2023-02-22T23:23:06.064Z,10.48
2023-02-22T23:25:33.341Z,10.45
2023-02-22T23:27:59.981Z,10.40
2023-02-22T23:30:26.978Z,10.34
2023-02-22T23:32:53.732Z,10.38
2023-02-22T23:35:20.136Z,10.72
2023-02-22T23:37:53.022Z,10.79
2023-02-22T23:40:19.576Z,10.56
2023-02-22T23:42:49.732Z,10.48
2023-02-22T23:45:22.661Z,10.44
2023-02-22T23:48:01.467Z,10.43
2023-02-22T23:50:30.224Z,10.44
2023-02-22T23:53:03.418Z,10.44
2023-02-22T23:55:31.853Z,10.40
2023-02-22T23:57:59.431Z,10.30
